Time;durP1;ratioP1;P1;durP2;ratioP2;P2;SDS_P1;SDS_P2;PMS_P1;PMS_P2;Temp;Humidity;BMP_temperature;BMP_pressure;BME280_temperature;BME280_humidity;BME280_pressure;Samples;Min_cycle;Max_cycle;Signal;HPM_P1;HPM_P2
2021/09/21 00:01:59;;;;;;;2.70;2.50;;;16.80;99.90;;;;;;5043725;28;20024;-77
2021/09/21 00:04:28;;;;;;;2.90;2.70;;;16.90;99.90;;;;;;5049852;28;20486;-78
2021/09/21 00:06:55;;;;;;;3.55;3.25;;;16.90;99.90;;;;;;5070895;28;20032;-77
2021/09/21 00:09:30;;;;;;;3.47;3.17;;;16.80;99.90;;;;;;5067222;28;20029;-78
2021/09/21 00:12:04;;;;;;;3.10;2.90;;;16.80;99.90;;;;;;5066758;28;20038;-77
2021/09/21 00:14:30;;;;;;;3.42;2.85;;;16.70;99.90;;;;;;5073956;28;20108;-77
2021/09/21 00:16:56;;;;;;;3.38;3.08;;;16.70;99.90;;;;;;5058355;28;20057;-78
2021/09/21 00:19:24;;;;;;;3.53;2.58;;;16.80;99.90;;;;;;5062257;28;20016;-77
2021/09/21 00:21:50;;;;;;;3.20;2.90;;;16.80;99.90;;;;;;5080200;28;20020;-77
2021/09/21 00:24:16;;;;;;;3.08;2.60;;;16.70;99.90;;;;;;5064961;28;20017;-78
2021/09/21 00:26:42;;;;;;;4.72;3.10;;;16.70;99.90;;;;;;5086379;28;20039;-78
2021/09/21 00:29:08;;;;;;;3.15;2.72;;;16.70;99.90;;;;;;5065588;28;20040;-78
2021/09/21 00:31:41;;;;;;;4.78;2.33;;;16.70;99.90;;;;;;5058263;28;20021;-77
2021/09/21 00:34:13;;;;;;;7.57;3.20;;;16.70;99.90;;;;;;5066529;28;20029;-77
2021/09/21 00:36:41;;;;;;;2.70;2.50;;;16.80;99.90;;;;;;5066496;28;20021;-77
2021/09/21 00:39:11;;;;;;;3.13;2.05;;;16.80;99.90;;;;;;5081993;28;20489;-78
2021/09/21 00:41:41;;;;;;;3.13;2.92;;;16.80;99.90;;;;;;5090502;28;20088;-77
2021/09/21 00:44:08;;;;;;;3.13;2.20;;;16.80;99.90;;;;;;5110520;28;20016;-78
2021/09/21 00:46:34;;;;;;;2.75;2.55;;;16.80;99.90;;;;;;5100319;28;20080;-77
2021/09/21 00:49:00;;;;;;;3.33;3.08;;;16.80;99.90;;;;;;5070322;28;20067;-77
2021/09/21 00:51:26;;;;;;;3.65;3.15;;;16.90;99.90;;;;;;5073452;28;20024;-78
2021/09/21 00:53:53;;;;;;;3.75;2.65;;;16.90;99.90;;;;;;5058133;28;20035;-78
2021/09/21 00:56:19;;;;;;;3.60;3.08;;;16.90;99.90;;;;;;5071135;28;20020;-78
2021/09/21 00:58:45;;;;;;;4.38;2.33;;;16.90;99.90;;;;;;5081280;28;20075;-78
2021/09/21 01:01:11;;;;;;;3.15;2.70;;;16.90;99.90;;;;;;5075601;28;20028;-78
2021/09/21 01:03:36;;;;;;;3.75;2.88;;;16.90;99.90;;;;;;5083218;28;20096;-78
2021/09/21 01:06:02;;;;;;;4.50;2.90;;;16.90;99.90;;;;;;5050543;28;20028;-78
2021/09/21 01:08:29;;;;;;;3.05;2.38;;;16.90;99.90;;;;;;5073808;28;20068;-78
2021/09/21 01:10:56;;;;;;;3.63;2.35;;;16.80;99.90;;;;;;5080248;28;20020;-78
2021/09/21 01:13:22;;;;;;;3.22;2.92;;;16.70;99.90;;;;;;5068044;28;20114;-77
2021/09/21 01:15:48;;;;;;;3.28;2.60;;;16.70;99.90;;;;;;5090084;28;20107;-78
2021/09/21 01:18:14;;;;;;;3.33;2.70;;;16.60;99.90;;;;;;5074902;28;20025;-78
2021/09/21 01:20:40;;;;;;;8.13;3.55;;;16.60;99.90;;;;;;5078914;28;20028;-78
2021/09/21 01:23:06;;;;;;;3.08;2.85;;;16.60;99.90;;;;;;5084581;28;20031;-77
2021/09/21 01:25:33;;;;;;;8.38;3.60;;;16.60;99.90;;;;;;5065962;28;20068;-77
2021/09/21 01:27:59;;;;;;;3.47;3.17;;;16.60;99.90;;;;;;5074643;28;20032;-78
2021/09/21 01:30:25;;;;;;;3.85;3.10;;;16.50;99.90;;;;;;5082073;28;20436;-78
2021/09/21 01:32:51;;;;;;;3.97;3.08;;;16.60;99.90;;;;;;5076956;28;20020;-78
2021/09/21 01:35:17;;;;;;;4.82;3.00;;;16.60;99.90;;;;;;5065101;28;20032;-78
2021/09/21 01:37:51;;;;;;;3.47;2.83;;;16.60;99.90;;;;;;5075961;28;20048;-78
2021/09/21 01:40:17;;;;;;;3.47;3.17;;;16.60;99.90;;;;;;5078586;28;20016;-78
2021/09/21 01:42:49;;;;;;;4.55;3.53;;;16.60;99.90;;;;;;5068188;28;20070;-78
2021/09/21 01:45:16;;;;;;;3.77;3.37;;;16.50;99.90;;;;;;5063951;28;20031;-78
2021/09/21 01:47:45;;;;;;;6.80;3.00;;;16.50;99.90;;;;;;5080125;28;20032;-78
2021/09/21 01:52:52;;;;;;;3.15;2.88;;;16.50;99.90;;;;;;5065554;28;20033;-78
2021/09/21 01:58:18;;;;;;;3.70;3.22;;;16.40;99.90;;;;;;5078340;28;20032;-78
2021/09/21 02:00:52;;;;;;;3.08;2.85;;;16.50;99.90;;;;;;5082512;28;20155;-78
2021/09/21 02:03:17;;;;;;;6.13;3.15;;;16.40;99.90;;;;;;5049364;28;20115;-78
2021/09/21 02:05:44;;;;;;;4.20;3.80;;;16.50;99.90;;;;;;5077271;28;20117;-78
2021/09/21 02:08:10;;;;;;;3.28;2.97;;;16.40;99.90;;;;;;5059644;28;20031;-78
2021/09/21 02:10:36;;;;;;;3.55;3.30;;;16.40;99.90;;;;;;5077312;28;20020;-78
2021/09/21 02:13:01;;;;;;;3.03;2.80;;;16.40;99.90;;;;;;5083581;28;20028;-78
2021/09/21 02:15:31;;;;;;;3.08;2.85;;;16.40;99.90;;;;;;5090897;28;20032;-77
2021/09/21 02:18:00;;;;;;;4.10;3.80;;;16.40;99.90;;;;;;5070515;28;20022;-78
2021/09/21 02:20:27;;;;;;;4.75;2.88;;;16.40;99.90;;;;;;5065994;28;20062;-77
2021/09/21 02:23:10;;;;;;;3.35;3.05;;;16.40;99.90;;;;;;5070651;28;20025;-77
2021/09/21 02:25:37;;;;;;;3.80;3.00;;;16.30;99.90;;;;;;5076519;28;20075;-78
2021/09/21 02:28:06;;;;;;;3.95;3.65;;;16.30;99.90;;;;;;5084266;28;20032;-77
2021/09/21 02:30:32;;;;;;;3.80;3.50;;;16.30;99.90;;;;;;5073899;28;20038;-78
2021/09/21 02:33:01;;;;;;;10.75;4.00;;;16.30;99.90;;;;;;5078705;28;20040;-77
2021/09/21 02:35:30;;;;;;;3.17;2.97;;;16.30;99.90;;;;;;5076101;28;20058;-77
2021/09/21 02:37:57;;;;;;;4.25;3.85;;;16.20;99.90;;;;;;5070683;28;20024;-78
2021/09/21 02:40:23;;;;;;;3.40;3.10;;;16.30;99.90;;;;;;5084308;28;20047;-78
2021/09/21 02:42:49;;;;;;;8.27;3.42;;;16.30;99.90;;;;;;5080649;28;20024;-78
2021/09/21 02:45:15;;;;;;;4.60;3.63;;;16.20;99.90;;;;;;5057358;28;20028;-78
2021/09/21 02:47:41;;;;;;;3.20;2.97;;;16.20;99.90;;;;;;5069402;28;20382;-77
2021/09/21 02:50:09;;;;;;;3.42;3.15;;;16.30;99.90;;;;;;5096251;28;20024;-77
2021/09/21 02:52:35;;;;;;;3.00;2.80;;;16.20;99.90;;;;;;5050194;28;20049;-78
2021/09/21 02:55:04;;;;;;;3.75;3.38;;;16.20;99.90;;;;;;5071573;28;20119;-78
2021/09/21 02:57:33;;;;;;;14.43;4.18;;;16.20;99.90;;;;;;5049999;28;20032;-77
2021/09/21 03:00:00;;;;;;;4.20;3.58;;;16.10;99.90;;;;;;5092856;28;20202;-77
2021/09/21 03:02:29;;;;;;;6.18;3.55;;;16.10;99.90;;;;;;5054446;28;20402;-78
2021/09/21 03:04:58;;;;;;;3.45;3.22;;;16.10;99.90;;;;;;5064033;28;20029;-77
2021/09/21 03:07:32;;;;;;;4.63;3.33;;;16.10;99.90;;;;;;5056101;28;20028;-77
2021/09/21 03:13:16;;;;;;;3.42;3.13;;;16.10;99.90;;;;;;5075281;28;20029;-77
2021/09/21 03:18:27;;;;;;;5.25;4.10;;;16.00;99.90;;;;;;5081747;28;20034;-77
2021/09/21 03:20:56;;;;;;;3.97;3.67;;;16.00;99.90;;;;;;5060460;28;20021;-77
2021/09/21 03:23:23;;;;;;;6.07;3.67;;;16.00;99.90;;;;;;5069756;28;20486;-77
2021/09/21 03:25:49;;;;;;;4.40;3.63;;;16.00;99.90;;;;;;5082367;28;20490;-78
2021/09/21 03:28:14;;;;;;;4.07;3.78;;;16.00;99.90;;;;;;5083794;28;20047;-77
2021/09/21 03:30:50;;;;;;;4.13;3.72;;;16.00;99.90;;;;;;5084789;28;20068;-77
2021/09/21 03:33:23;;;;;;;6.75;4.10;;;16.00;99.90;;;;;;5067051;28;20482;-77
2021/09/21 03:35:52;;;;;;;4.00;3.70;;;16.00;99.90;;;;;;5055507;28;20079;-77
2021/09/21 03:38:18;;;;;;;5.20;4.30;;;16.00;99.90;;;;;;5072627;28;20024;-77
2021/09/21 03:40:51;;;;;;;5.28;4.60;;;16.00;99.90;;;;;;5076743;28;20025;-77
2021/09/21 03:43:18;;;;;;;5.03;3.50;;;16.10;99.90;;;;;;5074744;28;20044;-78
2021/09/21 03:45:49;;;;;;;3.25;3.00;;;16.10;99.90;;;;;;5089346;28;20135;-78
2021/09/21 03:48:15;;;;;;;4.15;3.75;;;16.10;99.90;;;;;;5075199;28;20086;-77
2021/09/21 03:50:43;;;;;;;4.38;3.97;;;16.10;99.90;;;;;;5084596;28;20497;-77
2021/09/21 03:53:09;;;;;;;3.80;3.22;;;16.20;99.90;;;;;;5081039;28;20497;-77
2021/09/21 03:55:35;;;;;;;4.30;3.90;;;16.10;99.90;;;;;;5066461;28;20044;-77
2021/09/21 03:58:01;;;;;;;4.13;3.38;;;16.20;99.90;;;;;;5084088;28;20020;-77
2021/09/21 04:00:27;;;;;;;7.00;3.72;;;16.20;99.90;;;;;;5079557;28;20108;-78
2021/09/21 04:02:53;;;;;;;4.15;3.78;;;16.20;99.90;;;;;;5092211;28;20367;-77
2021/09/21 04:05:19;;;;;;;10.95;7.05;;;16.20;99.90;;;;;;5070544;28;20074;-78
2021/09/21 04:07:49;;;;;;;4.55;3.90;;;16.20;99.90;;;;;;5077852;28;20028;-78
2021/09/21 04:10:15;;;;;;;4.70;4.20;;;16.20;99.90;;;;;;5062896;28;20498;-78
2021/09/21 04:12:41;;;;;;;5.82;4.38;;;16.20;99.90;;;;;;5062055;28;20506;-78
2021/09/21 04:15:08;;;;;;;4.72;4.28;;;16.30;99.90;;;;;;5063589;28;20490;-78
2021/09/21 04:17:34;;;;;;;6.25;3.72;;;16.30;99.90;;;;;;5074903;28;20056;-78
2021/09/21 04:20:00;;;;;;;4.13;3.70;;;16.30;99.90;;;;;;5073377;28;20023;-78
2021/09/21 04:22:27;;;;;;;10.57;3.95;;;16.40;99.90;;;;;;5072359;28;20079;-78
2021/09/21 04:24:54;;;;;;;4.28;3.42;;;16.40;99.90;;;;;;5055023;28;20047;-78
2021/09/21 04:27:20;;;;;;;4.20;3.80;;;16.40;99.90;;;;;;5037868;28;20063;-78
2021/09/21 04:29:49;;;;;;;5.47;3.97;;;16.40;99.90;;;;;;5071021;28;20032;-78
2021/09/21 04:32:19;;;;;;;4.18;3.30;;;16.30;99.90;;;;;;5049293;28;20031;-77
2021/09/21 04:34:49;;;;;;;4.05;3.75;;;16.30;99.90;;;;;;5057604;28;20489;-78
2021/09/21 04:37:16;;;;;;;4.03;3.70;;;16.30;99.90;;;;;;5068816;28;20034;-78
2021/09/21 04:39:42;;;;;;;4.05;3.70;;;16.30;99.90;;;;;;5073225;28;20021;-77
2021/09/21 04:42:09;;;;;;;6.63;4.45;;;16.40;99.90;;;;;;5074386;28;20020;-78
2021/09/21 04:44:39;;;;;;;4.22;3.83;;;16.40;99.90;;;;;;5072398;28;20103;-78
2021/09/21 04:47:05;;;;;;;4.53;4.07;;;16.40;99.90;;;;;;5059611;28;20052;-78
2021/09/21 04:49:32;;;;;;;4.00;3.60;;;16.30;99.90;;;;;;5094328;28;20385;-78
2021/09/21 04:51:58;;;;;;;5.35;3.92;;;16.30;99.90;;;;;;5067460;28;20020;-77
2021/09/21 04:54:24;;;;;;;4.97;4.43;;;16.40;99.90;;;;;;5075182;28;20029;-78
2021/09/21 04:56:50;;;;;;;10.95;4.20;;;16.30;99.90;;;;;;5086293;28;20036;-78
2021/09/21 04:59:18;;;;;;;4.38;3.90;;;16.20;99.90;;;;;;5086249;28;20020;-78
2021/09/21 05:01:44;;;;;;;5.55;3.72;;;16.30;99.90;;;;;;5090303;28;20024;-78
2021/09/21 05:04:10;;;;;;;3.70;3.40;;;16.30;99.90;;;;;;5082386;28;20021;-77
2021/09/21 05:06:36;;;;;;;4.30;3.90;;;16.30;99.90;;;;;;5081817;28;20024;-78
2021/09/21 05:09:02;;;;;;;4.18;3.88;;;16.30;99.90;;;;;;5097782;28;20077;-77
2021/09/21 05:11:28;;;;;;;6.60;3.42;;;16.30;99.90;;;;;;5049985;28;20029;-77
2021/09/21 05:13:54;;;;;;;3.97;3.22;;;16.20;99.90;;;;;;5075217;28;20037;-77
2021/09/21 05:16:20;;;;;;;4.60;4.20;;;16.10;99.90;;;;;;5088742;28;20481;-77
2021/09/21 05:18:46;;;;;;;4.18;3.80;;;16.20;99.90;;;;;;5086739;28;20032;-77
2021/09/21 05:21:12;;;;;;;4.35;4.05;;;16.00;99.90;;;;;;5094155;28;20479;-77
2021/09/21 05:23:37;;;;;;;5.25;3.38;;;15.80;99.90;;;;;;5081349;28;20497;-77
2021/09/21 05:26:03;;;;;;;4.82;4.43;;;15.80;99.90;;;;;;5080772;28;20398;-78
2021/09/21 05:28:29;;;;;;;5.10;4.60;;;15.80;99.90;;;;;;5064841;28;20502;-77
2021/09/21 05:30:55;;;;;;;4.68;4.20;;;15.90;99.90;;;;;;5064327;28;20024;-78
2021/09/21 05:33:21;;;;;;;12.15;8.95;;;15.90;99.90;;;;;;5068424;28;20482;-78
2021/09/21 05:35:47;;;;;;;4.55;4.15;;;15.90;99.90;;;;;;5085896;28;20422;-78
2021/09/21 05:38:13;;;;;;;3.92;3.53;;;15.90;99.90;;;;;;5083902;28;20020;-77
2021/09/21 05:40:40;;;;;;;8.88;4.47;;;16.00;99.90;;;;;;5072277;28;20367;-77
2021/09/21 05:43:07;;;;;;;4.72;4.20;;;16.20;99.90;;;;;;5079023;28;20401;-77
2021/09/21 05:45:33;;;;;;;6.72;4.13;;;16.20;99.90;;;;;;5078786;28;20021;-78
2021/09/21 05:47:59;;;;;;;4.20;3.75;;;16.20;99.90;;;;;;5063104;28;20060;-77
2021/09/21 05:50:31;;;;;;;4.40;4.00;;;16.20;99.90;;;;;;5085969;28;20036;-77
2021/09/21 05:52:57;;;;;;;5.18;4.47;;;16.20;99.90;;;;;;5045033;28;20081;-77
2021/09/21 05:55:23;;;;;;;5.30;3.75;;;16.30;99.90;;;;;;5056146;28;20131;-78
2021/09/21 05:57:49;;;;;;;4.53;4.15;;;16.50;99.90;;;;;;5085352;28;20720;-77
2021/09/21 06:00:19;;;;;;;3.95;3.65;;;16.60;99.90;;;;;;5083339;28;20103;-78
2021/09/21 06:02:45;;;;;;;5.32;3.83;;;16.70;99.90;;;;;;5072507;28;20024;-77
2021/09/21 06:05:11;;;;;;;5.15;4.60;;;16.70;99.90;;;;;;5097514;28;20017;-77
2021/09/21 06:07:54;;;;;;;3.00;2.80;;;16.70;99.90;;;;;;5088078;28;20028;-77
2021/09/21 06:10:23;;;;;;;4.70;4.20;;;16.80;99.90;;;;;;5076895;28;20486;-77
2021/09/21 06:13:01;;;;;;;3.75;3.45;;;16.80;99.90;;;;;;5093386;28;20071;-78
2021/09/21 06:15:30;;;;;;;4.28;3.65;;;16.80;99.90;;;;;;5089971;28;20038;-78
2021/09/21 06:17:56;;;;;;;3.75;3.40;;;16.90;99.90;;;;;;5060940;28;20046;-77
2021/09/21 06:20:21;;;;;;;4.78;3.65;;;16.90;99.90;;;;;;5082893;28;20016;-78
2021/09/21 06:22:55;;;;;;;5.40;3.33;;;17.00;99.90;;;;;;5082434;28;20410;-78
2021/09/21 06:25:21;;;;;;;3.88;3.40;;;17.00;99.90;;;;;;5092948;28;20024;-78
2021/09/21 06:27:59;;;;;;;3.65;3.10;;;17.10;99.90;;;;;;5071543;28;20437;-78
2021/09/21 06:30:25;;;;;;;6.18;3.58;;;17.30;99.90;;;;;;5056956;28;20150;-78
2021/09/21 06:32:51;;;;;;;4.32;2.97;;;17.40;99.90;;;;;;5078463;28;20024;-78
2021/09/21 06:35:17;;;;;;;3.08;2.88;;;17.50;99.90;;;;;;5076011;28;20016;-77
2021/09/21 06:37:43;;;;;;;3.05;2.85;;;17.70;99.90;;;;;;5091845;28;20024;-78
2021/09/21 06:40:11;;;;;;;4.85;3.35;;;17.80;99.90;;;;;;5071487;28;20035;-74
2021/09/21 06:42:37;;;;;;;3.10;2.90;;;17.90;99.90;;;;;;5057174;28;20413;-74
2021/09/21 06:45:04;;;;;;;5.57;2.42;;;18.10;99.90;;;;;;5084522;28;20449;-74
2021/09/21 06:47:30;;;;;;;3.97;3.30;;;18.20;99.90;;;;;;5070049;28;20029;-74
2021/09/21 06:49:57;;;;;;;3.92;2.75;;;18.20;99.90;;;;;;5089626;28;20020;-74
2021/09/21 06:52:23;;;;;;;4.68;3.38;;;18.30;99.90;;;;;;5088437;28;20419;-74
2021/09/21 06:54:48;;;;;;;3.78;3.08;;;18.30;99.90;;;;;;5082917;28;20483;-73
2021/09/21 06:57:14;;;;;;;7.75;2.63;;;18.40;99.90;;;;;;5087115;28;20037;-73
2021/09/21 06:59:40;;;;;;;3.13;2.90;;;18.40;99.90;;;;;;5078970;28;20024;-75
2021/09/21 07:02:06;;;;;;;3.00;2.80;;;18.10;99.90;;;;;;5062491;28;20039;-74
2021/09/21 07:04:32;;;;;;;3.90;3.05;;;18.00;99.90;;;;;;5079667;28;20086;-73
2021/09/21 07:06:57;;;;;;;6.30;3.10;;;18.00;99.90;;;;;;5094369;28;20024;-73
2021/09/21 07:09:23;;;;;;;2.80;2.38;;;18.00;99.90;;;;;;5081342;28;20092;-74
2021/09/21 07:11:49;;;;;;;3.28;2.97;;;18.00;99.90;;;;;;5074189;28;20111;-73
2021/09/21 07:14:15;;;;;;;3.10;2.80;;;18.20;99.90;;;;;;5094472;28;20074;-73
2021/09/21 07:16:41;;;;;;;4.00;3.60;;;18.20;99.90;;;;;;5084367;28;20059;-73
2021/09/21 07:19:07;;;;;;;4.25;3.85;;;18.30;99.90;;;;;;5078868;28;20025;-72
2021/09/21 07:21:33;;;;;;;4.45;3.90;;;18.40;99.90;;;;;;5079738;28;20107;-73
2021/09/21 07:23:59;;;;;;;5.55;4.60;;;18.30;99.90;;;;;;5081059;28;20455;-73
2021/09/21 07:26:25;;;;;;;4.47;3.67;;;18.40;99.90;;;;;;5077366;28;20035;-73
2021/09/21 07:28:51;;;;;;;6.45;4.03;;;18.30;99.90;;;;;;5084265;28;20036;-74
2021/09/21 07:31:17;;;;;;;4.22;3.83;;;18.30;99.90;;;;;;5074611;28;20028;-73
2021/09/21 07:33:44;;;;;;;5.05;3.58;;;18.40;99.90;;;;;;5076986;28;20017;-74
2021/09/21 07:36:10;;;;;;;5.22;3.70;;;18.40;99.90;;;;;;5049020;28;20039;-73
2021/09/21 07:38:36;;;;;;;4.97;3.45;;;18.60;99.90;;;;;;5059046;28;20020;-74
2021/09/21 07:41:02;;;;;;;3.58;3.10;;;18.70;99.90;;;;;;5080980;28;20110;-74
2021/09/21 07:43:28;;;;;;;6.03;4.82;;;18.60;99.90;;;;;;5075035;28;20039;-74
2021/09/21 07:45:54;;;;;;;4.15;3.80;;;18.60;99.90;;;;;;5073762;28;20568;-73
2021/09/21 07:48:20;;;;;;;5.60;4.20;;;18.50;99.90;;;;;;5069587;28;20029;-74
2021/09/21 07:50:51;;;;;;;4.80;4.32;;;18.50;99.90;;;;;;5081900;28;20020;-74
2021/09/21 07:53:18;;;;;;;5.53;4.17;;;18.60;99.90;;;;;;5068496;28;20020;-74
2021/09/21 07:55:44;;;;;;;3.63;3.17;;;18.70;99.90;;;;;;5062150;28;20314;-73
2021/09/21 07:58:10;;;;;;;3.17;2.90;;;18.80;99.90;;;;;;5060467;28;20024;-74
2021/09/21 08:00:38;;;;;;;6.40;4.25;;;18.90;99.90;;;;;;5051050;28;20046;-74
2021/09/21 08:03:04;;;;;;;3.90;3.38;;;18.90;99.90;;;;;;5085275;28;20027;-75
2021/09/21 08:05:32;;;;;;;3.47;3.15;;;18.80;99.90;;;;;;5091807;28;20038;-74
2021/09/21 08:07:59;;;;;;;3.30;3.05;;;18.70;99.90;;;;;;5088427;28;20085;-74
2021/09/21 08:10:25;;;;;;;6.32;3.63;;;18.80;99.90;;;;;;5086140;28;20087;-75
2021/09/21 08:12:51;;;;;;;2.90;2.58;;;18.80;99.90;;;;;;5075921;28;20413;-74
2021/09/21 08:15:18;;;;;;;5.38;3.33;;;18.80;99.90;;;;;;5082118;28;20022;-74
2021/09/21 08:17:44;;;;;;;8.20;4.03;;;18.80;99.90;;;;;;5058238;28;20049;-75
2021/09/21 08:20:11;;;;;;;3.95;3.65;;;18.90;99.90;;;;;;5081365;28;20095;-74
2021/09/21 08:22:38;;;;;;;4.18;3.88;;;19.10;99.90;;;;;;5048966;28;20033;-74
2021/09/21 08:25:08;;;;;;;4.13;3.72;;;19.30;99.90;;;;;;5078297;28;20071;-76
2021/09/21 08:27:36;;;;;;;6.93;3.35;;;19.40;99.90;;;;;;5083998;28;20028;-76
2021/09/21 08:30:04;;;;;;;3.58;3.28;;;19.60;99.90;;;;;;5085854;28;20645;-76
2021/09/21 08:32:31;;;;;;;2.88;2.55;;;19.50;99.90;;;;;;5070787;28;20044;-74
2021/09/21 08:34:57;;;;;;;3.03;2.80;;;19.50;99.90;;;;;;5057604;28;20038;-76
2021/09/21 08:37:23;;;;;;;6.47;3.88;;;19.30;99.90;;;;;;5090508;28;20045;-74
2021/09/21 08:39:49;;;;;;;4.68;3.92;;;19.50;99.90;;;;;;5088171;28;20703;-74
2021/09/21 08:42:15;;;;;;;5.65;3.47;;;19.80;99.90;;;;;;5094996;28;20024;-75
2021/09/21 08:44:41;;;;;;;3.70;3.28;;;20.10;99.90;;;;;;5088525;28;20031;-75
2021/09/21 08:47:07;;;;;;;7.93;3.42;;;20.10;99.90;;;;;;5065006;28;20059;-77
2021/09/21 08:49:33;;;;;;;4.05;3.75;;;20.40;99.90;;;;;;5083437;28;20024;-76
2021/09/21 08:51:59;;;;;;;4.47;4.13;;;20.60;99.90;;;;;;5084192;28;20028;-75
2021/09/21 08:54:26;;;;;;;4.43;3.63;;;20.80;99.90;;;;;;5089549;28;20093;-75
2021/09/21 09:00:10;;;;;;;5.07;3.15;;;20.80;99.90;;;;;;5092237;28;20092;-75
2021/09/21 09:06:59;;;;;;;;;;;20.20;99.90;;;;;;4955665;29;20043;-77
2021/09/21 09:09:29;;;;;;;3.95;3.58;;;20.30;99.90;;;;;;4951319;29;20021;-74
2021/09/21 09:12:03;;;;;;;5.65;4.20;;;20.30;99.90;;;;;;5015775;28;20034;-76
2021/09/21 09:15:20;;;;;;;5.22;3.28;;;20.20;99.90;;;;;;5031241;28;20088;-74
2021/09/21 09:18:05;;;;;;;3.30;2.97;;;20.30;99.90;;;;;;4996306;28;20088;-77
2021/09/21 09:23:59;;;;;;;3.20;2.90;;;20.30;99.90;;;;;;5031621;28;20530;-75
2021/09/21 09:27:00;;;;;;;5.28;2.95;;;20.10;99.90;;;;;;5052668;28;20281;-76
2021/09/21 09:29:58;;;;;;;3.45;3.13;;;20.10;99.90;;;;;;5086682;28;20037;-75
2021/09/21 09:32:25;;;;;;;5.55;2.78;;;20.00;99.90;;;;;;5086862;28;20117;-74
2021/09/21 09:35:30;;;;;;;3.33;2.45;;;20.10;99.90;;;;;;5087444;28;20032;-75
2021/09/21 09:37:59;;;;;;;3.10;2.80;;;20.00;99.90;;;;;;5053423;28;20033;-74
2021/09/21 09:40:26;;;;;;;3.65;3.35;;;20.10;99.90;;;;;;5074166;28;20035;-75
2021/09/21 09:42:52;;;;;;;3.60;3.28;;;20.30;99.90;;;;;;5068292;28;20432;-73
2021/09/21 09:45:30;;;;;;;2.67;2.53;;;20.50;99.90;;;;;;5083376;28;20031;-74
2021/09/21 09:47:59;;;;;;;7.47;3.63;;;20.60;99.90;;;;;;5074708;28;20017;-73
2021/09/21 09:57:53;;;;;;;7.22;3.25;;;20.80;99.90;;;;;;5076867;28;20058;-72
2021/09/21 10:00:33;;;;;;;3.45;3.15;;;21.00;99.90;;;;;;5069056;28;20039;-73
2021/09/21 10:03:00;;;;;;;4.55;3.13;;;20.90;99.90;;;;;;5068294;28;20024;-73
2021/09/21 10:08:52;;;;;;;4.57;3.15;;;20.90;99.90;;;;;;5049993;28;20043;-75
2021/09/21 10:14:39;;;;;;;3.88;3.58;;;20.90;99.90;;;;;;5048960;28;20033;-73
2021/09/21 10:17:35;;;;;;;;;;;;;;;;;;;;;
2021/09/21 10:27:23;;;;;;;3.40;3.13;;;21.40;99.90;;;;;;5071374;28;20453;-73
2021/09/21 10:30:00;;;;;;;3.28;2.97;;;21.00;99.90;;;;;;5072628;28;20512;-73
2021/09/21 10:32:30;;;;;;;3.25;3.05;;;20.80;99.90;;;;;;5082649;28;20028;-74
2021/09/21 10:34:58;;;;;;;3.53;3.22;;;20.80;99.90;;;;;;5076210;28;20508;-74
2021/09/21 10:37:32;;;;;;;3.72;3.20;;;20.70;99.90;;;;;;5057916;28;20573;-73
2021/09/21 10:40:13;;;;;;;3.65;3.28;;;20.80;99.90;;;;;;5061928;28;20016;-74
2021/09/21 10:42:52;;;;;;;3.85;3.53;;;20.90;99.90;;;;;;5064612;28;20391;-74
2021/09/21 10:45:28;;;;;;;3.60;3.17;;;20.90;99.90;;;;;;5084090;28;20035;-73
2021/09/21 10:48:08;;;;;;;3.75;3.38;;;21.10;99.90;;;;;;5093540;28;20031;-74
2021/09/21 10:50:38;;;;;;;5.63;3.38;;;21.20;99.90;;;;;;5094704;28;20020;-74
2021/09/21 10:53:08;;;;;;;3.00;2.78;;;21.20;99.90;;;;;;5080418;28;20021;-74
2021/09/21 10:55:46;;;;;;;2.80;2.60;;;21.20;99.90;;;;;;5088001;28;20050;-75
2021/09/21 10:58:19;;;;;;;3.83;3.20;;;21.10;99.90;;;;;;5079922;28;20477;-74
2021/09/21 11:01:03;;;;;;;5.78;3.10;;;21.10;99.90;;;;;;5093833;28;20107;-75
2021/09/21 11:03:37;;;;;;;3.80;2.90;;;21.10;99.90;;;;;;5071884;28;20029;-73
2021/09/21 11:06:14;;;;;;;3.55;3.15;;;21.10;99.90;;;;;;5084789;28;20020;-74
2021/09/21 11:08:47;;;;;;;5.05;2.95;;;21.30;99.90;;;;;;5089696;28;20035;-75
2021/09/21 11:11:13;;;;;;;3.65;3.35;;;21.30;99.90;;;;;;5074154;28;20050;-74
2021/09/21 11:13:54;;;;;;;2.65;2.40;;;21.30;99.90;;;;;;5091160;28;20039;-73
2021/09/21 11:16:44;;;;;;;;;;;;;;;;;;;;;
2021/09/21 11:19:10;;;;;;;2.60;2.40;;;21.20;99.90;;;;;;5080661;28;20027;-73
2021/09/21 11:21:39;;;;;;;5.53;3.22;;;21.40;99.90;;;;;;5064484;28;20052;-73
2021/09/21 11:24:08;;;;;;;2.60;2.40;;;21.40;99.90;;;;;;5070099;28;20073;-75
2021/09/21 11:26:35;;;;;;;3.42;3.17;;;21.10;99.90;;;;;;5094411;28;20032;-73
2021/09/21 11:31:50;;;;;;;3.28;2.35;;;21.30;99.90;;;;;;5063108;28;20163;-75
2021/09/21 11:34:16;;;;;;;3.00;2.80;;;21.40;99.90;;;;;;5076675;28;20028;-75
2021/09/21 11:36:49;;;;;;;2.90;2.70;;;21.40;99.90;;;;;;5066028;28;20020;-75
2021/09/21 11:39:18;;;;;;;3.55;3.25;;;21.40;99.90;;;;;;5070725;28;20377;-74
2021/09/21 11:42:34;;;;;;;2.78;2.58;;;21.50;99.90;;;;;;5054234;28;20020;-73
2021/09/21 11:45:37;;;;;;;6.75;2.85;;;21.70;99.90;;;;;;5060521;28;20037;-74
2021/09/21 11:48:03;;;;;;;2.47;2.20;;;21.80;99.90;;;;;;5068281;28;20043;-74
2021/09/21 11:50:56;;;;;;;4.03;3.15;;;21.70;99.90;;;;;;5075686;28;20024;-73
2021/09/21 11:53:30;;;;;;;3.20;2.85;;;21.80;99.90;;;;;;5076991;28;20020;-74
2021/09/21 11:55:58;;;;;;;6.70;2.97;;;21.70;99.90;;;;;;5070703;28;20016;-74
2021/09/21 11:58:28;;;;;;;3.05;2.80;;;21.80;99.90;;;;;;5084151;28;20141;-74
2021/09/21 12:00:59;;;;;;;3.58;2.63;;;21.80;99.90;;;;;;5077451;28;20024;-74
2021/09/21 12:03:45;;;;;;;;;;;;;;;;;;;;;
2021/09/21 12:06:12;;;;;;;1.83;1.73;;;21.80;99.90;;;;;;5070593;28;20077;-74
2021/09/21 12:08:47;;;;;;;2.60;2.50;;;21.90;99.90;;;;;;5080259;28;20027;-74
2021/09/21 12:11:32;;;;;;;;;;;;;;;;;;;;;
2021/09/21 12:14:09;;;;;;;2.13;2.03;;;21.50;99.90;;;;;;5086224;28;20039;-73
2021/09/21 12:16:38;;;;;;;3.25;2.38;;;21.60;99.90;;;;;;5082911;28;20032;-74
2021/09/21 12:19:18;;;;;;;4.10;2.78;;;21.50;99.90;;;;;;5080858;28;20432;-73
2021/09/21 12:21:47;;;;;;;2.47;2.28;;;21.40;99.90;;;;;;5093294;28;20016;-73
2021/09/21 12:24:13;;;;;;;8.75;2.60;;;21.40;99.90;;;;;;5064961;28;20082;-73
2021/09/21 12:26:39;;;;;;;3.20;2.75;;;21.40;99.90;;;;;;5090267;28;20032;-74
2021/09/21 12:29:07;;;;;;;3.20;2.95;;;21.70;99.90;;;;;;5077944;28;20029;-74
2021/09/21 12:31:35;;;;;;;7.03;2.78;;;21.80;99.90;;;;;;5082261;28;20038;-74
2021/09/21 12:34:14;;;;;;;5.03;2.45;;;21.90;99.90;;;;;;5076361;28;20024;-74
2021/09/21 12:36:43;;;;;;;2.40;2.20;;;22.00;99.90;;;;;;5064582;28;20043;-73
2021/09/21 12:39:19;;;;;;;5.80;2.85;;;21.90;99.90;;;;;;5063713;28;20070;-73
2021/09/21 12:41:48;;;;;;;5.22;3.15;;;21.60;99.90;;;;;;5065717;28;20017;-74
2021/09/21 12:44:16;;;;;;;4.32;2.83;;;21.70;99.90;;;;;;5082186;28;20107;-74
2021/09/21 12:46:44;;;;;;;2.80;2.58;;;21.30;99.90;;;;;;5083099;28;20036;-74
2021/09/21 12:49:15;;;;;;;2.88;2.63;;;21.40;99.90;;;;;;5091680;28;20389;-74
2021/09/21 12:51:47;;;;;;;2.30;2.08;;;21.50;99.90;;;;;;5086860;28;20028;-74
2021/09/21 12:54:16;;;;;;;5.32;3.20;;;21.70;99.90;;;;;;5070935;28;20052;-74
2021/09/21 12:56:47;;;;;;;2.95;2.53;;;21.80;99.90;;;;;;5086632;28;20485;-74
2021/09/21 12:59:15;;;;;;;2.90;2.70;;;21.80;99.90;;;;;;5081791;28;20024;-75
2021/09/21 13:01:42;;;;;;;5.07;2.35;;;21.90;99.90;;;;;;5084487;28;20470;-74
2021/09/21 13:04:09;;;;;;;2.60;2.40;;;21.80;99.90;;;;;;5091265;28;20028;-74
2021/09/21 13:06:36;;;;;;;2.80;2.60;;;21.90;99.90;;;;;;5076819;28;20033;-74
2021/09/21 13:09:09;;;;;;;3.78;2.17;;;21.70;99.90;;;;;;5090245;28;20035;-73
2021/09/21 13:14:59;;;;;;;;;;;;;;;;;;;;;
2021/09/21 13:17:34;;;;;;;3.38;2.92;;;21.90;99.90;;;;;;5056904;28;20033;-75
2021/09/21 13:23:06;;;;;;;3.40;3.10;;;22.00;99.90;;;;;;5075640;28;20043;-74
2021/09/21 13:25:37;;;;;;;3.20;2.22;;;22.00;99.90;;;;;;5076821;28;20021;-75
2021/09/21 13:28:23;;;;;;;3.58;1.77;;;22.10;99.90;;;;;;5070634;28;20037;-74
2021/09/21 13:31:18;;;;;;;;;;;;;;;;;;;;;
2021/09/21 13:40:51;;;;;;;3.42;2.85;;;21.90;99.90;;;;;;4921337;29;20145;-75
2021/09/21 13:44:03;;;;;;;3.53;3.22;;;21.80;99.90;;;;;;4987873;28;20053;-74
2021/09/21 13:49:51;;;;;;;3.92;2.55;;;22.00;99.90;;;;;;5008684;28;20048;-74
2021/09/21 13:52:27;;;;;;;3.25;2.95;;;22.10;99.90;;;;;;4998703;28;20043;-75
2021/09/21 13:58:50;;;;;;;2.47;2.28;;;22.10;99.90;;;;;;5002438;28;20042;-75
2021/09/21 14:01:18;;;;;;;2.85;2.53;;;22.10;99.90;;;;;;5046107;28;20078;-73
2021/09/21 14:03:44;;;;;;;2.88;2.67;;;22.20;99.90;;;;;;5067007;28;20028;-74
2021/09/21 14:06:39;;;;;;;3.58;2.83;;;22.30;99.90;;;;;;5069272;28;20044;-80
2021/09/21 14:10:01;;;;;;;4.60;3.55;;;22.20;99.90;;;;;;5004284;28;20656;-76
2021/09/21 14:12:58;;;;;;;3.15;2.92;;;22.20;99.90;;;;;;5042934;28;20423;-72
2021/09/21 14:19:06;;;;;;;10.48;2.88;;;22.60;99.90;;;;;;5056825;28;20029;-76
2021/09/21 14:22:17;;;;;;;;;;;;;;;;;;;;;